首页
METAR-TAF:

METAR-TAF

机场 :

埃尔福特-魏玛机场

埃尔福特, 德国

纬度: 50-59N, 经度: 010-58E, 海拔: 315米

当前天气观测

该预报发布于41分钟前的09:20 UTC
风速2节,风向多变
温度 2°C
湿度 100%
气压 1009 hPa
能見度: 0200

METAR: EDDE 220920Z VRB02KT 0200 R28/0400N FG VV/// 02/02 Q1009 NOSIG

时间: 11:01 (10:01 UTC)

预报

该预报发布于1小时和14分钟前的08:47 UTC
预报有效从22日的 08点(UTC)到 23日的 06点(UTC)
风速3节,风向多变
能見度: 7000
散云层高于200英尺
短暂存在
从 22日的 08点(UTC)到 22日的 15点(UTC)
能見度: 0100
阴天层高于100英尺
成为
从 22日的 20点(UTC)到 22日的 24点(UTC)
能見度: 0100
多云层高于100英尺

TAF: EDDE 220847Z 2208/2306 VRB03KT 7000 SCT002 TEMPO 2208/2215 0100 FG OVC001 BECMG 2220/2224 0100 FG BKN001

超过4000个机场的气象观测和天气预报(METAR&TAF报告)。

可查询的气象台以黄色和红色小点在地图上表示。

将鼠标移到小点上方,可查看气象台名称。

然后点击查看天气观测和预报。

如需切换地图:点击带黑十字的绿色按钮放大地图;点击带横线的绿色按钮缩小地图;或者点击绿色箭头查看邻近地区的地图。


METAR-TAF: